Time,TemperatureF,DewpointF,PressureIn,WindDirection,WindDirectionDegrees,WindSpeedMPH,WindSpeedGustMPH,Humidity,HourlyPrecipIn,Conditions,Clouds,dailyrainin,SoftwareType,DateUTC
2013-01-29 00:00:00,51.3,44.6,29.79,SSE,158,2.5,2.5,78,0.00,,,0.00,VWS V14.01,2013-01-29 05:00:00,
2013-01-29 00:01:00,51.3,44.6,29.79,SSE,158,2.5,2.5,78,0.00,,,0.00,VWS V14.01,2013-01-29 05:01:00,
2013-01-29 00:03:00,51.3,44.6,29.79,ESE,112,2.7,2.7,78,0.00,,,0.00,VWS V14.01,2013-01-29 05:03:00,
2013-01-29 00:04:00,51.3,44.6,29.79,South,180,1.1,2.7,78,0.00,,,0.00,VWS V14.01,2013-01-29 05:04:00,
2013-01-29 00:09:00,51.3,45.0,29.79,SE,135,1.6,1.6,79,0.00,,,0.00,VWS V14.01,2013-01-29 05:09:00,
2013-01-29 00:14:00,51.3,45.0,29.79,ESE,112,0.0,0.0,79,0.00,,,0.00,VWS V14.01,2013-01-29 05:14:00,
2013-01-29 00:19:00,51.3,45.0,29.79,SSE,158,0.0,2.0,79,0.00,,,0.00,VWS V14.01,2013-01-29 05:19:00,
2013-01-29 00:24:00,51.4,45.2,29.79,South,180,1.3,1.3,79,0.00,,,0.00,VWS V14.01,2013-01-29 05:24:00,
2013-01-29 00:29:00,51.4,45.2,29.79,SW,225,4.7,4.7,79,0.00,,,0.00,VWS V14.01,2013-01-29 05:29:00,
2013-01-29 00:34:00,51.4,45.5,29.79,NE,45,2.5,3.6,80,0.00,,,0.00,VWS V14.01,2013-01-29 05:34:00,
2013-01-29 00:40:00,51.4,45.5,29.79,South,180,1.1,1.3,80,0.00,,,0.00,VWS V14.01,2013-01-29 05:40:00,
2013-01-29 00:45:00,51.4,45.5,29.79,SSW,202,2.5,2.5,80,0.00,,,0.00,VWS V14.01,2013-01-29 05:45:00,
2013-01-29 00:50:00,51.4,45.5,29.79,SSE,158,2.7,2.7,80,0.00,,,0.00,VWS V14.01,2013-01-29 05:50:00,
2013-01-29 00:55:00,51.4,45.5,29.79,SSE,158,2.7,2.7,80,0.00,,,0.00,VWS V14.01,2013-01-29 05:55:00,
2013-01-29 01:00:00,51.4,45.5,29.79,SSE,158,0.0,2.9,80,0.00,,,0.00,VWS V14.01,2013-01-29 06:00:00,
2013-01-29 01:05:00,51.4,45.5,29.79,SSE,158,5.8,5.8,80,0.00,,,0.00,VWS V14.01,2013-01-29 06:05:00,
2013-01-29 01:10:00,51.4,45.5,29.79,South,180,0.9,2.9,80,0.00,,,0.00,VWS V14.01,2013-01-29 06:10:00,
2013-01-29 01:15:00,51.4,45.5,29.76,South,180,2.0,4.3,80,0.00,,,0.00,VWS V14.01,2013-01-29 06:15:00,
2013-01-29 01:20:00,51.4,45.8,29.76,South,180,1.3,1.3,81,0.00,,,0.00,VWS V14.01,2013-01-29 06:20:00,
2013-01-29 01:25:00,51.4,45.8,29.76,South,180,0.0,0.0,81,0.00,,,0.00,VWS V14.01,2013-01-29 06:25:00,
2013-01-29 01:30:00,51.4,45.8,29.76,South,180,0.0,1.3,81,0.00,,,0.00,VWS V14.01,2013-01-29 06:30:00,
2013-01-29 01:35:00,51.4,45.8,29.76,SSE,158,1.1,1.1,81,0.00,,,0.00,VWS V14.01,2013-01-29 06:35:00,
2013-01-29 03:25:00,49.6,44.4,29.76,SE,135,0.0,0.0,82,0.00,,,0.00,VWS V14.01,2013-01-29 08:25:00,
2013-01-29 03:30:00,49.6,44.7,29.76,SE,135,0.0,1.6,83,0.00,,,0.00,VWS V14.01,2013-01-29 08:30:00,
2013-01-29 03:35:00,49.6,44.7,29.76,SE,135,1.6,2.0,83,0.00,,,0.00,VWS V14.01,2013-01-29 08:35:00,
2013-01-29 03:41:00,49.8,44.9,29.76,SE,135,0.0,0.0,83,0.00,,,0.00,VWS V14.01,2013-01-29 08:41:00,
2013-01-29 03:46:00,49.8,45.2,29.76,ESE,112,2.5,2.5,84,0.00,,,0.00,VWS V14.01,2013-01-29 08:46:00,
2013-01-29 03:51:00,49.8,45.2,29.76,SE,135,0.0,2.2,84,0.00,,,0.00,VWS V14.01,2013-01-29 08:51:00,
2013-01-29 03:56:00,49.8,45.2,29.76,SSE,158,0.0,2.0,84,0.00,,,0.00,VWS V14.01,2013-01-29 08:56:00,
2013-01-29 04:01:00,49.8,45.2,29.76,South,180,0.0,0.0,84,0.00,,,0.00,VWS V14.01,2013-01-29 09:01:00,
2013-01-29 04:06:00,49.8,45.2,29.76,ESE,112,1.1,2.7,84,0.00,,,0.00,VWS V14.01,2013-01-29 09:06:00,
2013-01-29 04:11:00,49.8,45.2,29.76,ESE,112,0.0,1.3,84,0.00,,,0.00,VWS V14.01,2013-01-29 09:11:00,
2013-01-29 04:16:00,49.6,45.0,29.76,SSW,202,0.0,0.0,84,0.00,,,0.00,VWS V14.01,2013-01-29 09:16:00,
2013-01-29 04:21:00,49.6,45.0,29.76,SSW,202,0.0,0.0,84,0.00,,,0.00,VWS V14.01,2013-01-29 09:21:00,
2013-01-29 04:26:00,49.5,44.8,29.76,SE,135,2.5,2.5,84,0.00,,,0.00,VWS V14.01,2013-01-29 09:26:00,
2013-01-29 04:31:00,49.5,44.8,29.76,ESE,112,2.7,2.9,84,0.00,,,0.00,VWS V14.01,2013-01-29 09:31:00,
2013-01-29 04:36:00,49.5,44.8,29.76,South,180,0.0,0.0,84,0.00,,,0.00,VWS V14.01,2013-01-29 09:36:00,
2013-01-29 04:41:00,49.5,44.8,29.76,South,180,0.0,0.0,84,0.00,,,0.00,VWS V14.01,2013-01-29 09:41:00,
2013-01-29 04:46:00,49.3,44.7,29.76,ESE,112,1.3,1.6,84,0.00,,,0.00,VWS V14.01,2013-01-29 09:46:00,
2013-01-29 04:51:00,49.3,44.7,29.76,West,270,0.9,0.9,84,0.00,,,0.00,VWS V14.01,2013-01-29 09:51:00,
2013-01-29 04:56:00,49.3,44.7,29.76,SE,135,2.9,2.9,84,0.00,,,0.00,VWS V14.01,2013-01-29 09:56:00,
2013-01-29 05:01:00,49.1,44.5,29.76,SE,135,2.5,2.5,84,0.00,,,0.00,VWS V14.01,2013-01-29 10:01:00,
2013-01-29 05:06:00,48.9,44.3,29.76,ESE,112,2.7,2.7,84,0.00,,,0.00,VWS V14.01,2013-01-29 10:06:00,
2013-01-29 05:11:00,48.6,44.0,29.76,South,180,0.0,2.7,84,0.00,,,0.00,VWS V14.01,2013-01-29 10:11:00,
2013-01-29 05:16:00,48.6,44.0,29.76,SSE,158,0.0,0.9,84,0.00,,,0.00,VWS V14.01,2013-01-29 10:16:00,
2013-01-29 05:21:00,48.4,43.8,29.76,SE,135,2.0,2.0,84,0.00,,,0.00,VWS V14.01,2013-01-29 10:21:00,
2013-01-29 05:27:00,48.4,43.8,29.76,SE,135,1.1,2.2,84,0.00,,,0.00,VWS V14.01,2013-01-29 10:27:00,
2013-01-29 05:32:00,48.4,43.8,29.74,South,180,0.0,0.0,84,0.00,,,0.00,VWS V14.01,2013-01-29 10:32:00,
2013-01-29 05:37:00,48.4,43.8,29.74,SSE,158,0.0,0.0,84,0.00,,,0.00,VWS V14.01,2013-01-29 10:37:00,
2013-01-29 05:42:00,48.4,43.8,29.74,SSE,158,0.0,0.0,84,0.00,,,0.00,VWS V14.01,2013-01-29 10:42:00,
2013-01-29 05:47:00,48.4,43.8,29.74,SSE,158,0.0,0.0,84,0.00,,,0.00,VWS V14.01,2013-01-29 10:47:00,
2013-01-29 05:52:00,48.2,43.6,29.74,SE,135,0.0,0.0,84,0.00,,,0.00,VWS V14.01,2013-01-29 10:52:00,
2013-01-29 05:57:00,48.2,43.6,29.74,ESE,112,2.0,2.5,84,0.00,,,0.00,VWS V14.01,2013-01-29 10:57:00,
2013-01-29 06:02:00,48.2,43.6,29.74,SE,135,2.7,2.7,84,0.00,,,0.00,VWS V14.01,2013-01-29 11:02:00,
2013-01-29 06:07:00,48.2,43.9,29.74,WSW,248,0.0,0.0,85,0.00,,,0.00,VWS V14.01,2013-01-29 11:07:00,
2013-01-29 06:12:00,48.0,43.7,29.74,SE,135,0.0,0.0,85,0.00,,,0.00,VWS V14.01,2013-01-29 11:12:00,
2013-01-29 06:17:00,47.8,43.6,29.74,South,180,0.0,0.0,85,0.00,,,0.00,VWS V14.01,2013-01-29 11:17:00,
2013-01-29 06:22:00,48.0,43.7,29.74,South,180,0.0,0.0,85,0.00,,,0.00,VWS V14.01,2013-01-29 11:22:00,
2013-01-29 06:27:00,47.8,43.6,29.76,SSE,158,0.0,0.0,85,0.00,,,0.00,VWS V14.01,2013-01-29 11:27:00,
2013-01-29 06:32:00,48.0,43.7,29.76,SE,135,2.0,2.0,85,0.00,,,0.00,VWS V14.01,2013-01-29 11:32:00,
2013-01-29 06:38:00,47.8,43.6,29.76,SSE,158,3.4,3.4,85,0.00,,,0.00,VWS V14.01,2013-01-29 11:38:00,
2013-01-29 06:43:00,47.8,43.6,29.76,ESE,112,2.9,2.9,85,0.00,,,0.00,VWS V14.01,2013-01-29 11:43:00,
2013-01-29 06:48:00,47.8,43.6,29.76,ESE,112,0.0,0.0,85,0.00,,,0.00,VWS V14.01,2013-01-29 11:48:00,
2013-01-29 06:53:00,47.8,43.9,29.76,ESE,112,0.0,1.3,86,0.00,,,0.00,VWS V14.01,2013-01-29 11:53:00,
2013-01-29 06:58:00,47.8,43.9,29.76,SSE,158,1.1,1.1,86,0.00,,,0.00,VWS V14.01,2013-01-29 11:58:00,
2013-01-29 07:03:00,47.7,43.4,29.76,SSE,158,1.1,1.1,85,0.00,,,0.00,VWS V14.01,2013-01-29 12:03:00,
2013-01-29 07:08:00,47.5,43.2,29.76,SE,135,1.6,1.6,85,0.00,,,0.00,VWS V14.01,2013-01-29 12:08:00,
2013-01-29 07:13:00,47.5,43.2,29.76,SE,135,1.3,1.3,85,0.00,,,0.00,VWS V14.01,2013-01-29 12:13:00,
2013-01-29 07:18:00,47.3,43.0,29.76,ESE,112,2.2,2.2,85,0.00,,,0.00,VWS V14.01,2013-01-29 12:18:00,
2013-01-29 07:23:00,47.3,43.0,29.76,SE,135,2.0,2.0,85,0.00,,,0.00,VWS V14.01,2013-01-29 12:23:00,
2013-01-29 07:28:00,47.3,43.0,29.76,SE,135,2.0,2.9,85,0.00,,,0.00,VWS V14.01,2013-01-29 12:28:00,
2013-01-29 07:34:00,47.3,43.0,29.76,SSE,158,0.0,0.0,85,0.00,,,0.00,VWS V14.01,2013-01-29 12:34:00,
2013-01-29 07:39:00,47.3,43.0,29.76,SE,135,0.0,0.0,85,0.00,,,0.00,VWS V14.01,2013-01-29 12:39:00,
2013-01-29 07:44:00,47.1,42.8,29.76,SE,135,0.0,0.0,85,0.00,,,0.00,VWS V14.01,2013-01-29 12:44:00,
2013-01-29 07:49:00,47.1,42.8,29.76,SSE,158,0.0,0.0,85,0.00,,,0.00,VWS V14.01,2013-01-29 12:49:00,
2013-01-29 07:54:00,47.1,42.8,29.76,SE,135,0.0,0.0,85,0.00,,,0.00,VWS V14.01,2013-01-29 12:54:00,
2013-01-29 07:59:00,47.1,42.8,29.76,SE,135,0.0,0.0,85,0.00,,,0.00,VWS V14.01,2013-01-29 12:59:00,
2013-01-29 08:04:00,47.1,43.2,29.76,South,180,0.0,0.0,86,0.00,,,0.00,VWS V14.01,2013-01-29 13:04:00,
2013-01-29 08:09:00,47.3,43.3,29.76,SSE,158,0.0,0.0,86,0.00,,,0.00,VWS V14.01,2013-01-29 13:09:00,
2013-01-29 08:14:00,47.5,43.5,29.76,SE,135,2.7,2.7,86,0.00,,,0.00,VWS V14.01,2013-01-29 13:14:00,
2013-01-29 08:19:00,47.8,43.9,29.76,SE,135,3.4,3.4,86,0.00,,,0.00,VWS V14.01,2013-01-29 13:19:00,
2013-01-29 08:24:00,48.4,44.4,29.76,SSW,202,0.0,0.0,86,0.00,,,0.00,VWS V14.01,2013-01-29 13:24:00,
2013-01-29 08:29:00,48.7,44.8,29.76,South,180,0.0,0.0,86,0.00,,,0.00,VWS V14.01,2013-01-29 13:29:00,
2013-01-29 08:34:00,49.1,45.1,29.76,ESE,112,2.9,2.9,86,0.00,,,0.00,VWS V14.01,2013-01-29 13:34:00,
2013-01-29 08:39:00,49.5,45.5,29.76,South,180,2.0,2.0,86,0.00,,,0.00,VWS V14.01,2013-01-29 13:39:00,
2013-01-29 08:44:00,49.6,45.6,29.76,SE,135,2.5,3.8,86,0.00,,,0.00,VWS V14.01,2013-01-29 13:44:00,
2013-01-29 08:49:00,50.0,45.7,29.76,SE,135,2.5,2.5,85,0.00,,,0.00,VWS V14.01,2013-01-29 13:49:00,
2013-01-29 08:54:00,50.4,46.0,29.76,South,180,0.0,0.0,85,0.00,,,0.00,VWS V14.01,2013-01-29 13:54:00,
2013-01-29 09:00:00,50.9,46.6,29.76,ESE,112,3.6,3.6,85,0.00,,,0.00,VWS V14.01,2013-01-29 14:00:00,
2013-01-29 09:05:00,51.3,46.9,29.76,ESE,112,0.0,1.6,85,0.00,,,0.00,VWS V14.01,2013-01-29 14:05:00,
2013-01-29 09:10:00,51.6,47.0,29.76,SSE,158,0.0,0.0,84,0.00,,,0.00,VWS V14.01,2013-01-29 14:10:00,
2013-01-29 09:15:00,52.0,47.0,29.76,SSE,158,2.9,2.9,83,0.00,,,0.00,VWS V14.01,2013-01-29 14:15:00,
2013-01-29 09:20:00,52.2,47.2,29.76,SE,135,2.5,2.5,83,0.00,,,0.00,VWS V14.01,2013-01-29 14:20:00,
2013-01-29 09:25:00,52.3,47.3,29.76,SE,135,2.2,2.2,83,0.00,,,0.00,VWS V14.01,2013-01-29 14:25:00,
2013-01-29 09:30:00,52.7,47.7,29.76,East,90,2.5,2.5,83,0.00,,,0.00,VWS V14.01,2013-01-29 14:30:00,
2013-01-29 09:35:00,52.9,47.5,29.76,SSW,202,1.1,1.1,82,0.00,,,0.00,VWS V14.01,2013-01-29 14:35:00,
2013-01-29 09:40:00,53.2,47.9,29.76,SSW,202,4.0,4.0,82,0.00,,,0.00,VWS V14.01,2013-01-29 14:40:00,
2013-01-29 09:45:00,54.1,48.5,29.76,SSW,202,3.1,3.1,81,0.00,,,0.00,VWS V14.01,2013-01-29 14:45:00,
2013-01-29 09:50:00,55.0,49.3,29.76,SSE,158,2.7,2.7,81,0.00,,,0.00,VWS V14.01,2013-01-29 14:50:00,
2013-01-29 09:55:00,55.6,49.2,29.76,North,0,0.0,0.9,79,0.00,,,0.00,VWS V14.01,2013-01-29 14:55:00,
2013-01-29 10:00:00,55.8,49.4,29.76,South,180,0.0,0.0,79,0.00,,,0.00,VWS V14.01,2013-01-29 15:00:00,
2013-01-29 10:05:00,55.9,49.5,29.76,SSE,158,1.6,2.7,79,0.00,,,0.00,VWS V14.01,2013-01-29 15:05:00,
2013-01-29 10:10:00,55.9,49.5,29.76,SE,135,2.7,3.1,79,0.00,,,0.00,VWS V14.01,2013-01-29 15:10:00,
2013-01-29 10:15:00,56.1,49.4,29.76,SE,135,3.1,3.1,78,0.00,,,0.00,VWS V14.01,2013-01-29 15:15:00,
2013-01-29 10:21:00,56.1,49.4,29.76,SSE,158,1.3,5.8,78,0.00,,,0.00,VWS V14.01,2013-01-29 15:21:00,
2013-01-29 10:26:00,56.3,49.5,29.76,South,180,2.5,2.5,78,0.00,,,0.00,VWS V14.01,2013-01-29 15:26:00,
2013-01-29 10:31:00,56.5,49.7,29.76,SSE,158,5.6,5.6,78,0.00,,,0.00,VWS V14.01,2013-01-29 15:31:00,
2013-01-29 10:36:00,56.7,49.5,29.76,East,90,2.7,2.7,77,0.00,,,0.00,VWS V14.01,2013-01-29 15:36:00,
2013-01-29 10:41:00,57.2,50.1,29.76,SE,135,2.9,2.9,77,0.00,,,0.00,VWS V14.01,2013-01-29 15:41:00,
2013-01-29 10:46:00,57.4,49.9,29.76,ESE,112,2.9,2.9,76,0.00,,,0.00,VWS V14.01,2013-01-29 15:46:00,
2013-01-29 10:51:00,57.7,50.2,29.76,SE,135,4.3,4.3,76,0.00,,,0.00,VWS V14.01,2013-01-29 15:51:00,
2013-01-29 10:56:00,58.1,50.6,29.76,ESE,112,3.6,3.6,76,0.00,,,0.00,VWS V14.01,2013-01-29 15:56:00,
2013-01-29 11:01:00,58.6,51.1,29.76,SSW,202,2.0,2.0,76,0.00,,,0.00,VWS V14.01,2013-01-29 16:01:00,
2013-01-29 11:06:00,59.2,51.3,29.76,South,180,3.4,3.4,75,0.00,,,0.00,VWS V14.01,2013-01-29 16:06:00,
2013-01-29 11:11:00,60.1,52.1,29.76,SE,135,2.0,2.0,75,0.00,,,0.00,VWS V14.01,2013-01-29 16:11:00,
2013-01-29 11:16:00,60.8,52.5,29.76,SSW,202,4.7,4.7,74,0.00,,,0.00,VWS V14.01,2013-01-29 16:16:00,
2013-01-29 11:21:00,61.3,52.6,29.76,WNW,292,2.2,2.5,73,0.00,,,0.00,VWS V14.01,2013-01-29 16:21:00,
2013-01-29 11:26:00,62.1,53.3,29.76,SSE,158,3.6,3.6,73,0.00,,,0.00,VWS V14.01,2013-01-29 16:26:00,
2013-01-29 11:32:00,62.8,53.6,29.76,SW,225,1.6,1.6,72,0.00,,,0.00,VWS V14.01,2013-01-29 16:32:00,
2013-01-29 11:37:00,63.5,53.9,29.76,East,90,2.5,2.5,71,0.00,,,0.00,VWS V14.01,2013-01-29 16:37:00,
2013-01-29 11:42:00,63.7,54.1,29.76,SE,135,3.4,3.4,71,0.00,,,0.00,VWS V14.01,2013-01-29 16:42:00,
2013-01-29 11:47:00,63.9,54.3,29.74,SE,135,1.6,2.0,71,0.00,,,0.00,VWS V14.01,2013-01-29 16:47:00,
2013-01-29 11:52:00,64.2,54.2,29.74,SE,135,1.3,3.1,70,0.00,,,0.00,VWS V14.01,2013-01-29 16:52:00,
2013-01-29 11:57:00,64.0,54.1,29.74,South,180,2.5,2.5,70,0.00,,,0.00,VWS V14.01,2013-01-29 16:57:00,
2013-01-29 12:02:00,64.4,54.4,29.74,South,180,2.0,2.0,70,0.00,,,0.00,VWS V14.01,2013-01-29 17:02:00,
2013-01-29 12:07:00,65.1,55.1,29.74,East,90,2.5,2.5,70,0.00,,,0.00,VWS V14.01,2013-01-29 17:07:00,
2013-01-29 12:12:00,65.7,55.2,29.71,ESE,112,1.3,1.3,69,0.00,,,0.00,VWS V14.01,2013-01-29 17:12:00,
2013-01-29 12:17:00,65.8,55.4,29.71,SE,135,5.4,5.4,69,0.00,,,0.00,VWS V14.01,2013-01-29 17:17:00,
2013-01-29 12:22:00,66.0,55.2,29.71,East,90,2.5,2.5,68,0.00,,,0.00,VWS V14.01,2013-01-29 17:22:00,
2013-01-29 12:27:00,66.2,55.3,29.71,SSW,202,1.1,3.1,68,0.00,,,0.00,VWS V14.01,2013-01-29 17:27:00,
2013-01-29 12:33:00,66.6,55.3,29.71,SSE,158,2.5,3.4,67,0.00,,,0.00,VWS V14.01,2013-01-29 17:33:00,
2013-01-29 12:38:00,67.3,56.0,29.71,SE,135,2.5,2.5,67,0.00,,,0.00,VWS V14.01,2013-01-29 17:38:00,
2013-01-29 12:43:00,68.2,56.4,29.68,SE,135,4.3,4.3,66,0.00,,,0.00,VWS V14.01,2013-01-29 17:43:00,
2013-01-29 12:48:00,69.1,56.8,29.68,SSE,158,3.4,3.4,65,0.00,,,0.00,VWS V14.01,2013-01-29 17:48:00,
2013-01-29 12:53:00,70.0,57.3,29.68,SSW,202,2.5,2.5,64,0.00,,,0.00,VWS V14.01,2013-01-29 17:53:00,
2013-01-29 12:58:00,71.1,57.8,29.68,South,180,1.6,1.6,63,0.00,,,0.00,VWS V14.01,2013-01-29 17:58:00,
2013-01-29 13:03:00,71.1,57.8,29.68,ESE,112,5.4,5.4,63,0.00,,,0.00,VWS V14.01,2013-01-29 18:03:00,
2013-01-29 13:08:00,71.8,58.1,29.68,SSW,202,2.2,2.2,62,0.00,,,0.00,VWS V14.01,2013-01-29 18:08:00,
2013-01-29 13:13:00,72.7,58.5,29.68,SE,135,2.5,2.5,61,0.00,,,0.00,VWS V14.01,2013-01-29 18:13:00,
2013-01-29 13:18:00,72.7,58.0,29.68,South,180,3.6,3.6,60,0.00,,,0.00,VWS V14.01,2013-01-29 18:18:00,
2013-01-29 13:23:00,72.5,57.8,29.68,SE,135,3.1,3.4,60,0.00,,,0.00,VWS V14.01,2013-01-29 18:23:00,
2013-01-29 13:28:00,72.5,57.8,29.68,SE,135,1.1,1.6,60,0.00,,,0.00,VWS V14.01,2013-01-29 18:28:00,
2013-01-29 13:33:00,72.1,57.5,29.68,South,180,0.0,0.0,60,0.00,,,0.00,VWS V14.01,2013-01-29 18:33:00,
2013-01-29 13:38:00,72.9,58.2,29.68,SSE,158,1.6,1.6,60,0.00,,,0.00,VWS V14.01,2013-01-29 18:38:00,
2013-01-29 13:44:00,72.7,58.0,29.68,SSE,158,1.1,1.1,60,0.00,,,0.00,VWS V14.01,2013-01-29 18:44:00,
2013-01-29 13:49:00,72.9,58.2,29.68,ESE,112,3.6,3.6,60,0.00,,,0.00,VWS V14.01,2013-01-29 18:49:00,
2013-01-29 13:54:00,72.7,58.0,29.68,SE,135,1.6,3.1,60,0.00,,,0.00,VWS V14.01,2013-01-29 18:54:00,
2013-01-29 13:59:00,73.0,58.3,29.65,SSE,158,2.5,3.1,60,0.00,,,0.00,VWS V14.01,2013-01-29 18:59:00,
2013-01-29 14:04:00,73.2,58.0,29.65,SSW,202,1.1,1.1,59,0.00,,,0.00,VWS V14.01,2013-01-29 19:04:00,
2013-01-29 14:09:00,73.9,58.7,29.65,SE,135,3.1,3.1,59,0.00,,,0.00,VWS V14.01,2013-01-29 19:09:00,
2013-01-29 14:14:00,73.2,57.6,29.65,South,180,3.1,3.1,58,0.00,,,0.00,VWS V14.01,2013-01-29 19:14:00,
2013-01-29 14:19:00,72.9,57.7,29.65,SSE,158,2.5,2.5,59,0.00,,,0.00,VWS V14.01,2013-01-29 19:19:00,
2013-01-29 14:24:00,73.2,58.0,29.65,SE,135,2.0,2.0,59,0.00,,,0.00,VWS V14.01,2013-01-29 19:24:00,
2013-01-29 14:29:00,73.4,57.7,29.65,East,90,3.4,3.4,58,0.00,,,0.00,VWS V14.01,2013-01-29 19:29:00,
2013-01-29 14:34:00,73.4,57.7,29.65,SSE,158,2.5,2.5,58,0.00,,,0.00,VWS V14.01,2013-01-29 19:34:00,
2013-01-29 14:39:00,73.4,57.7,29.65,SW,225,1.6,1.6,58,0.00,,,0.00,VWS V14.01,2013-01-29 19:39:00,
2013-01-29 14:44:00,73.2,57.1,29.65,SE,135,2.9,2.9,57,0.00,,,0.00,VWS V14.01,2013-01-29 19:44:00,
2013-01-29 14:49:00,73.0,56.9,29.65,SSE,158,2.7,2.7,57,0.00,,,0.00,VWS V14.01,2013-01-29 19:49:00,
2013-01-29 14:54:00,72.9,56.8,29.65,SSW,202,3.1,3.1,57,0.00,,,0.00,VWS V14.01,2013-01-29 19:54:00,
2013-01-29 14:58:00,72.9,56.8,29.65,SE,135,1.6,2.7,57,0.00,,,0.00,VWS V14.01,2013-01-29 19:58:00,
2013-01-29 15:03:00,72.7,56.6,29.65,ESE,112,1.6,1.6,57,0.00,,,0.00,VWS V14.01,2013-01-29 20:03:00,
2013-01-29 15:08:00,72.7,56.1,29.65,SSE,158,5.6,5.6,56,0.00,,,0.00,VWS V14.01,2013-01-29 20:08:00,
2013-01-29 15:13:00,72.7,56.1,29.62,ESE,112,2.0,2.7,56,0.00,,,0.00,VWS V14.01,2013-01-29 20:13:00,
2013-01-29 15:18:00,72.7,56.1,29.62,SE,135,2.7,4.7,56,0.00,,,0.00,VWS V14.01,2013-01-29 20:18:00,
2013-01-29 15:23:00,72.5,55.9,29.62,East,90,3.1,3.1,56,0.00,,,0.00,VWS V14.01,2013-01-29 20:23:00,
2013-01-29 15:28:00,72.3,55.8,29.65,ESE,112,3.6,6.5,56,0.00,,,0.00,VWS V14.01,2013-01-29 20:28:00,
2013-01-29 15:33:00,72.1,55.6,29.65,SSE,158,2.5,2.5,56,0.00,,,0.00,VWS V14.01,2013-01-29 20:33:00,
2013-01-29 15:39:00,72.1,55.6,29.65,East,90,4.0,5.6,56,0.00,,,0.00,VWS V14.01,2013-01-29 20:39:00,
2013-01-29 15:44:00,72.1,55.6,29.65,SSE,158,2.5,3.8,56,0.00,,,0.00,VWS V14.01,2013-01-29 20:44:00,
2013-01-29 15:49:00,72.0,55.4,29.65,SE,135,4.3,6.0,56,0.00,,,0.00,VWS V14.01,2013-01-29 20:49:00,
2013-01-29 15:54:00,72.0,55.4,29.65,East,90,2.7,3.1,56,0.00,,,0.00,VWS V14.01,2013-01-29 20:54:00,
2013-01-29 15:59:00,71.8,55.3,29.65,ESE,112,4.0,4.0,56,0.00,,,0.00,VWS V14.01,2013-01-29 20:59:00,
2013-01-29 16:04:00,71.6,55.1,29.65,SE,135,0.0,0.0,56,0.00,,,0.00,VWS V14.01,2013-01-29 21:04:00,
2013-01-29 16:09:00,71.4,54.9,29.65,SE,135,2.7,2.7,56,0.00,,,0.00,VWS V14.01,2013-01-29 21:09:00,
2013-01-29 16:14:00,71.4,54.9,29.65,East,90,4.9,4.9,56,0.00,,,0.00,VWS V14.01,2013-01-29 21:14:00,
2013-01-29 16:19:00,71.2,54.8,29.65,East,90,4.9,4.9,56,0.00,,,0.00,VWS V14.01,2013-01-29 21:19:00,
2013-01-29 16:24:00,71.1,55.1,29.65,East,90,3.8,3.8,57,0.00,,,0.00,VWS V14.01,2013-01-29 21:24:00,
2013-01-29 16:29:00,70.9,54.9,29.62,SE,135,2.9,2.9,57,0.00,,,0.00,VWS V14.01,2013-01-29 21:29:00,
2013-01-29 16:35:00,70.7,54.7,29.62,SE,135,2.5,3.8,57,0.00,,,0.00,VWS V14.01,2013-01-29 21:35:00,
2013-01-29 16:40:00,70.5,54.6,29.62,SSE,158,2.9,2.9,57,0.00,,,0.00,VWS V14.01,2013-01-29 21:40:00,
2013-01-29 16:45:00,70.3,54.9,29.65,SE,135,2.5,5.6,58,0.00,,,0.00,VWS V14.01,2013-01-29 21:45:00,
2013-01-29 16:50:00,70.0,54.5,29.65,East,90,2.9,2.9,58,0.00,,,0.00,VWS V14.01,2013-01-29 21:50:00,
2013-01-29 16:55:00,70.0,54.5,29.65,East,90,4.9,4.9,58,0.00,,,0.00,VWS V14.01,2013-01-29 21:55:00,
2013-01-29 17:00:00,69.8,54.4,29.62,ESE,112,2.9,5.4,58,0.00,,,0.00,VWS V14.01,2013-01-29 22:00:00,
2013-01-29 17:05:00,69.4,54.5,29.62,ESE,112,2.2,2.2,59,0.00,,,0.00,VWS V14.01,2013-01-29 22:05:00,
2013-01-29 17:10:00,69.3,54.3,29.62,ESE,112,2.9,2.9,59,0.00,,,0.00,VWS V14.01,2013-01-29 22:10:00,
2013-01-29 17:15:00,69.1,54.2,29.65,SE,135,3.6,3.6,59,0.00,,,0.00,VWS V14.01,2013-01-29 22:15:00,
2013-01-29 17:20:00,68.7,53.8,29.65,SE,135,2.5,2.5,59,0.00,,,0.00,VWS V14.01,2013-01-29 22:20:00,
2013-01-29 17:25:00,68.4,54.0,29.65,SE,135,1.1,2.2,60,0.00,,,0.00,VWS V14.01,2013-01-29 22:25:00,
2013-01-29 17:30:00,68.0,53.6,29.65,ESE,112,2.7,2.7,60,0.00,,,0.00,VWS V14.01,2013-01-29 22:30:00,
2013-01-29 17:35:00,67.6,53.7,29.65,East,90,0.0,0.0,61,0.00,,,0.00,VWS V14.01,2013-01-29 22:35:00,
2013-01-29 17:41:00,67.1,53.7,29.65,East,90,0.0,0.0,62,0.00,,,0.00,VWS V14.01,2013-01-29 22:41:00,
2013-01-29 17:46:00,66.9,53.5,29.62,SE,135,2.9,2.9,62,0.00,,,0.00,VWS V14.01,2013-01-29 22:46:00,
2013-01-29 17:51:00,66.6,53.2,29.62,ESE,112,0.0,0.0,62,0.00,,,0.00,VWS V14.01,2013-01-29 22:51:00,
2013-01-29 17:56:00,66.0,53.1,29.62,ESE,112,1.6,1.6,63,0.00,,,0.00,VWS V14.01,2013-01-29 22:56:00,
2013-01-29 18:01:00,65.7,52.7,29.62,ESE,112,0.0,0.0,63,0.00,,,0.00,VWS V14.01,2013-01-29 23:01:00,
2013-01-29 18:06:00,65.3,52.4,29.62,South,180,0.0,0.0,63,0.00,,,0.00,VWS V14.01,2013-01-29 23:06:00,
2013-01-29 18:11:00,64.9,52.5,29.62,ESE,112,0.0,0.0,64,0.00,,,0.00,VWS V14.01,2013-01-29 23:11:00,
2013-01-29 18:16:00,64.4,52.4,29.62,East,90,0.0,0.0,65,0.00,,,0.00,VWS V14.01,2013-01-29 23:16:00,
2013-01-29 18:21:00,64.2,52.2,29.62,South,180,0.0,0.0,65,0.00,,,0.00,VWS V14.01,2013-01-29 23:21:00,
2013-01-29 18:27:00,63.9,51.9,29.62,South,180,0.0,0.0,65,0.00,,,0.00,VWS V14.01,2013-01-29 23:27:00,
2013-01-29 18:32:00,63.1,51.2,29.62,South,180,0.0,0.0,65,0.00,,,0.00,VWS V14.01,2013-01-29 23:32:00,
2013-01-29 18:37:00,62.8,50.8,29.62,South,180,0.0,0.0,65,0.00,,,0.00,VWS V14.01,2013-01-29 23:37:00,
2013-01-29 18:42:00,62.4,50.9,29.62,South,180,0.0,0.0,66,0.00,,,0.00,VWS V14.01,2013-01-29 23:42:00,
2013-01-29 18:47:00,62.1,51.0,29.62,South,180,0.0,0.0,67,0.00,,,0.00,VWS V14.01,2013-01-29 23:47:00,
2013-01-29 18:52:00,61.7,50.6,29.62,South,180,0.0,0.0,67,0.00,,,0.00,VWS V14.01,2013-01-29 23:52:00,
2013-01-29 18:57:00,61.3,50.7,29.62,SE,135,0.0,0.0,68,0.00,,,0.00,VWS V14.01,2013-01-29 23:57:00,
2013-01-29 19:02:00,61.2,50.1,29.62,SE,135,0.0,0.0,67,0.00,,,0.00,VWS V14.01,2013-01-30 00:02:00,
2013-01-29 19:07:00,60.8,50.6,29.62,SE,135,0.0,0.0,69,0.00,,,0.00,VWS V14.01,2013-01-30 00:07:00,
2013-01-29 19:13:00,60.6,50.8,29.62,SE,135,0.0,0.0,70,0.00,,,0.00,VWS V14.01,2013-01-30 00:13:00,
2013-01-29 19:18:00,60.4,50.2,29.62,SE,135,0.0,0.0,69,0.00,,,0.00,VWS V14.01,2013-01-30 00:18:00,
2013-01-29 19:23:00,60.1,50.3,29.62,SE,135,0.0,0.0,70,0.00,,,0.00,VWS V14.01,2013-01-30 00:23:00,
2013-01-29 19:28:00,59.9,49.7,29.62,SE,135,0.0,0.0,69,0.00,,,0.00,VWS V14.01,2013-01-30 00:28:00,
2013-01-29 19:33:00,59.5,49.4,29.62,SE,135,0.0,0.0,69,0.00,,,0.00,VWS V14.01,2013-01-30 00:33:00,
2013-01-29 19:38:00,59.2,49.4,29.62,SE,135,0.0,0.0,70,0.00,,,0.00,VWS V14.01,2013-01-30 00:38:00,
2013-01-29 19:43:00,59.0,49.2,29.62,SE,135,0.0,0.0,70,0.00,,,0.00,VWS V14.01,2013-01-30 00:43:00,
2013-01-29 19:48:00,58.8,49.1,29.62,SE,135,0.0,0.0,70,0.00,,,0.00,VWS V14.01,2013-01-30 00:48:00,
2013-01-29 19:53:00,58.6,49.3,29.62,SE,135,0.0,0.0,71,0.00,,,0.00,VWS V14.01,2013-01-30 00:53:00,
2013-01-29 19:58:00,58.5,49.1,29.62,South,180,0.0,0.0,71,0.00,,,0.00,VWS V14.01,2013-01-30 00:58:00,
2013-01-29 20:03:00,58.1,49.1,29.62,South,180,0.0,0.0,72,0.00,,,0.00,VWS V14.01,2013-01-30 01:03:00,
2013-01-29 20:09:00,57.9,49.0,29.62,WSW,248,0.0,0.0,72,0.00,,,0.00,VWS V14.01,2013-01-30 01:09:00,
2013-01-29 20:14:00,57.7,48.8,29.62,West,270,0.0,0.0,72,0.00,,,0.00,VWS V14.01,2013-01-30 01:14:00,
2013-01-29 20:19:00,57.6,49.0,29.62,SW,225,0.0,0.0,73,0.00,,,0.00,VWS V14.01,2013-01-30 01:19:00,
2013-01-29 20:24:00,57.6,49.0,29.62,SW,225,0.0,0.0,73,0.00,,,0.00,VWS V14.01,2013-01-30 01:24:00,
2013-01-29 20:29:00,57.6,49.0,29.62,West,270,0.0,0.0,73,0.00,,,0.00,VWS V14.01,2013-01-30 01:29:00,
2013-01-29 20:34:00,57.7,49.5,29.62,SW,225,0.0,0.0,74,0.00,,,0.00,VWS V14.01,2013-01-30 01:34:00,
2013-01-29 20:39:00,57.6,49.3,29.62,SSW,202,0.0,0.0,74,0.00,,,0.00,VWS V14.01,2013-01-30 01:39:00,
2013-01-29 20:44:00,57.9,50.0,29.62,East,90,2.9,2.9,75,0.00,,,0.00,VWS V14.01,2013-01-30 01:44:00,
2013-01-29 20:49:00,58.8,51.3,29.62,SE,135,0.9,0.9,76,0.00,,,0.00,VWS V14.01,2013-01-30 01:49:00,
2013-01-29 20:54:00,59.9,52.3,29.62,ESE,112,1.3,2.9,76,0.00,,,0.00,VWS V14.01,2013-01-30 01:54:00,
2013-01-29 20:59:00,60.4,52.8,29.62,East,90,1.6,1.6,76,0.00,,,0.00,VWS V14.01,2013-01-30 01:59:00,
2013-01-29 21:04:00,60.6,53.0,29.62,SE,135,3.1,3.1,76,0.00,,,0.00,VWS V14.01,2013-01-30 02:04:00,
2013-01-29 21:09:00,61.2,53.2,29.62,ESE,112,3.4,3.4,75,0.00,,,0.00,VWS V14.01,2013-01-30 02:09:00,
2013-01-29 21:14:00,61.3,53.4,29.62,SE,135,2.2,2.2,75,0.00,,,0.00,VWS V14.01,2013-01-30 02:14:00,
2013-01-29 21:19:00,61.5,53.5,29.62,SE,135,2.9,2.9,75,0.00,,,0.00,VWS V14.01,2013-01-30 02:19:00,
2013-01-29 21:24:00,61.9,53.9,29.62,SSE,158,2.9,2.9,75,0.00,,,0.00,VWS V14.01,2013-01-30 02:24:00,
2013-01-29 21:29:00,61.9,53.9,29.62,ESE,112,2.0,2.9,75,0.00,,,0.00,VWS V14.01,2013-01-30 02:29:00,
2013-01-29 21:35:00,62.1,54.0,29.62,SSE,158,2.2,2.7,75,0.00,,,0.00,VWS V14.01,2013-01-30 02:35:00,
2013-01-29 21:40:00,62.2,54.2,29.62,SE,135,0.0,0.0,75,0.00,,,0.00,VWS V14.01,2013-01-30 02:40:00,
2013-01-29 21:45:00,61.9,53.5,29.62,ESE,112,3.6,3.6,74,0.00,,,0.00,VWS V14.01,2013-01-30 02:45:00,
2013-01-29 21:50:00,62.2,54.2,29.62,SE,135,3.1,3.1,75,0.00,,,0.00,VWS V14.01,2013-01-30 02:50:00,
2013-01-29 21:55:00,62.2,54.2,29.62,East,90,2.5,2.5,75,0.00,,,0.00,VWS V14.01,2013-01-30 02:55:00,
2013-01-29 22:00:00,62.4,54.4,29.62,SE,135,2.7,2.7,75,0.00,,,0.00,VWS V14.01,2013-01-30 03:00:00,
2013-01-29 22:05:00,62.1,54.0,29.62,ESE,112,1.3,2.2,75,0.00,,,0.00,VWS V14.01,2013-01-30 03:05:00,
2013-01-29 22:10:00,61.9,53.9,29.62,SSE,158,0.9,0.9,75,0.00,,,0.00,VWS V14.01,2013-01-30 03:10:00,
2013-01-29 22:15:00,61.7,53.7,29.62,SE,135,0.0,0.0,75,0.00,,,0.00,VWS V14.01,2013-01-30 03:15:00,
2013-01-29 22:20:00,61.3,53.4,29.62,SE,135,0.0,0.0,75,0.00,,,0.00,VWS V14.01,2013-01-30 03:20:00,
2013-01-29 22:25:00,61.3,53.4,29.62,ESE,112,2.9,2.9,75,0.00,,,0.00,VWS V14.01,2013-01-30 03:25:00,
2013-01-29 22:30:00,61.0,53.0,29.62,SE,135,1.3,1.6,75,0.00,,,0.00,VWS V14.01,2013-01-30 03:30:00,
2013-01-29 22:35:00,60.8,52.8,29.62,SSE,158,0.0,0.0,75,0.00,,,0.00,VWS V14.01,2013-01-30 03:35:00,
2013-01-29 22:40:00,60.4,52.8,29.62,South,180,0.0,0.0,76,0.00,,,0.00,VWS V14.01,2013-01-30 03:40:00,
2013-01-29 22:45:00,60.1,52.5,29.65,South,180,0.0,0.0,76,0.00,,,0.00,VWS V14.01,2013-01-30 03:45:00,
2013-01-29 22:50:00,59.7,52.5,29.65,SSE,158,0.0,0.0,77,0.00,,,0.00,VWS V14.01,2013-01-30 03:50:00,
2013-01-29 22:55:00,59.7,52.5,29.65,South,180,0.0,0.0,77,0.00,,,0.00,VWS V14.01,2013-01-30 03:55:00,
2013-01-29 23:00:00,59.7,52.5,29.65,SE,135,0.0,0.0,77,0.00,,,0.00,VWS V14.01,2013-01-30 04:00:00,
2013-01-29 23:06:00,59.5,52.3,29.65,South,180,0.0,0.0,77,0.00,,,0.00,VWS V14.01,2013-01-30 04:06:00,
2013-01-29 23:11:00,59.4,52.5,29.65,South,180,0.0,0.0,78,0.00,,,0.00,VWS V14.01,2013-01-30 04:11:00,
2013-01-29 23:16:00,59.0,52.2,29.62,East,90,0.0,0.0,78,0.00,,,0.00,VWS V14.01,2013-01-30 04:16:00,
2013-01-29 23:21:00,59.7,53.2,29.62,East,90,2.5,2.5,79,0.00,,,0.00,VWS V14.01,2013-01-30 04:21:00,
2013-01-29 23:26:00,60.1,53.6,29.62,East,90,2.9,2.9,79,0.00,,,0.00,VWS V14.01,2013-01-30 04:26:00,
2013-01-29 23:31:00,60.4,54.2,29.62,East,90,2.0,2.5,80,0.00,,,0.00,VWS V14.01,2013-01-30 04:31:00,
2013-01-29 23:36:00,60.8,54.3,29.62,South,180,3.8,3.8,79,0.00,,,0.00,VWS V14.01,2013-01-30 04:36:00,
2013-01-29 23:41:00,61.0,54.4,29.62,SE,135,3.1,4.0,79,0.00,,,0.00,VWS V14.01,2013-01-30 04:41:00,
2013-01-29 23:46:00,61.3,54.8,29.62,ESE,112,2.0,3.8,79,0.00,,,0.00,VWS V14.01,2013-01-30 04:46:00,
2013-01-29 23:51:00,61.3,54.8,29.62,SE,135,2.7,4.7,79,0.00,,,0.00,VWS V14.01,2013-01-30 04:51:00,
2013-01-29 23:56:00,61.5,55.0,29.62,ESE,112,3.6,4.3,79,0.00,,,0.00,VWS V14.01,2013-01-30 04:56:00,